sensor_id;sensor_type;location;lat;lon;timestamp;P1;durP1;ratioP1;P2;durP2;ratioP2
55732;SDS011;41637;52.364;9.910;2023-01-23T00:01:24;26.20;;;14.40;;
55732;SDS011;41637;52.364;9.910;2023-01-23T00:03:53;30.70;;;14.90;;
55732;SDS011;41637;52.364;9.910;2023-01-23T00:06:21;29.80;;;14.10;;
55732;SDS011;41637;52.364;9.910;2023-01-23T00:08:48;26.80;;;14.60;;
55732;SDS011;41637;52.364;9.910;2023-01-23T00:11:16;26.20;;;14.10;;
55732;SDS011;41637;52.364;9.910;2023-01-23T00:13:45;27.30;;;15.10;;
55732;SDS011;41637;52.364;9.910;2023-01-23T00:16:13;25.80;;;15.00;;
55732;SDS011;41637;52.364;9.910;2023-01-23T00:18:42;26.20;;;14.20;;
55732;SDS011;41637;52.364;9.910;2023-01-23T00:21:10;27.60;;;15.00;;
55732;SDS011;41637;52.364;9.910;2023-01-23T00:23:41;30.40;;;15.10;;
55732;SDS011;41637;52.364;9.910;2023-01-23T00:26:10;26.00;;;14.60;;
55732;SDS011;41637;52.364;9.910;2023-01-23T00:28:41;30.90;;;14.80;;
55732;SDS011;41637;52.364;9.910;2023-01-23T00:31:10;26.80;;;13.80;;
55732;SDS011;41637;52.364;9.910;2023-01-23T00:33:39;26.10;;;14.00;;
55732;SDS011;41637;52.364;9.910;2023-01-23T00:36:06;25.10;;;13.10;;
55732;SDS011;41637;52.364;9.910;2023-01-23T00:38:34;31.00;;;14.00;;
55732;SDS011;41637;52.364;9.910;2023-01-23T00:41:01;32.30;;;14.70;;
55732;SDS011;41637;52.364;9.910;2023-01-23T00:43:29;30.60;;;14.60;;
55732;SDS011;41637;52.364;9.910;2023-01-23T00:45:58;33.90;;;14.70;;
55732;SDS011;41637;52.364;9.910;2023-01-23T00:48:25;34.90;;;15.30;;
55732;SDS011;41637;52.364;9.910;2023-01-23T00:50:52;34.50;;;15.30;;
55732;SDS011;41637;52.364;9.910;2023-01-23T00:53:19;30.90;;;15.10;;
55732;SDS011;41637;52.364;9.910;2023-01-23T00:55:46;33.50;;;14.30;;
55732;SDS011;41637;52.364;9.910;2023-01-23T00:58:13;32.40;;;15.30;;
55732;SDS011;41637;52.364;9.910;2023-01-23T01:00:40;30.30;;;14.00;;
55732;SDS011;41637;52.364;9.910;2023-01-23T01:03:07;31.20;;;14.40;;
55732;SDS011;41637;52.364;9.910;2023-01-23T01:05:34;34.80;;;13.70;;
55732;SDS011;41637;52.364;9.910;2023-01-23T01:08:01;29.70;;;14.10;;
55732;SDS011;41637;52.364;9.910;2023-01-23T01:10:28;35.70;;;14.60;;
55732;SDS011;41637;52.364;9.910;2023-01-23T01:12:58;32.70;;;13.90;;
55732;SDS011;41637;52.364;9.910;2023-01-23T01:15:27;33.60;;;14.50;;
55732;SDS011;41637;52.364;9.910;2023-01-23T01:17:54;26.90;;;13.90;;
55732;SDS011;41637;52.364;9.910;2023-01-23T01:20:22;31.60;;;13.60;;
55732;SDS011;41637;52.364;9.910;2023-01-23T01:22:52;30.10;;;13.70;;
55732;SDS011;41637;52.364;9.910;2023-01-23T01:25:20;31.90;;;14.40;;
55732;SDS011;41637;52.364;9.910;2023-01-23T01:27:47;31.10;;;14.00;;
55732;SDS011;41637;52.364;9.910;2023-01-23T01:30:17;31.10;;;14.20;;
55732;SDS011;41637;52.364;9.910;2023-01-23T01:32:45;28.70;;;13.60;;
55732;SDS011;41637;52.364;9.910;2023-01-23T01:35:12;31.20;;;13.90;;
55732;SDS011;41637;52.364;9.910;2023-01-23T01:37:39;29.50;;;13.30;;
55732;SDS011;41637;52.364;9.910;2023-01-23T01:40:08;26.20;;;13.30;;
55732;SDS011;41637;52.364;9.910;2023-01-23T01:43:23;30.20;;;14.30;;
55732;SDS011;41637;52.364;9.910;2023-01-23T01:51:31;34.10;;;13.90;;
55732;SDS011;41637;52.364;9.910;2023-01-23T01:56:53;32.70;;;14.10;;
55732;SDS011;41637;52.364;9.910;2023-01-23T01:59:25;33.80;;;13.50;;
55732;SDS011;41637;52.364;9.910;2023-01-23T02:01:57;36.70;;;14.60;;
55732;SDS011;41637;52.364;9.910;2023-01-23T02:04:32;33.20;;;13.60;;
55732;SDS011;41637;52.364;9.910;2023-01-23T02:07:04;29.70;;;13.90;;
55732;SDS011;41637;52.364;9.910;2023-01-23T02:09:36;29.20;;;13.20;;
55732;SDS011;41637;52.364;9.910;2023-01-23T02:12:03;35.60;;;14.70;;
55732;SDS011;41637;52.364;9.910;2023-01-23T02:14:30;29.50;;;14.10;;
55732;SDS011;41637;52.364;9.910;2023-01-23T02:16:57;35.30;;;14.30;;
55732;SDS011;41637;52.364;9.910;2023-01-23T02:19:30;27.60;;;13.80;;
55732;SDS011;41637;52.364;9.910;2023-01-23T02:22:16;33.40;;;14.60;;
55732;SDS011;41637;52.364;9.910;2023-01-23T02:25:01;36.30;;;14.20;;
55732;SDS011;41637;52.364;9.910;2023-01-23T02:27:37;34.10;;;14.10;;
55732;SDS011;41637;52.364;9.910;2023-01-23T02:30:07;31.50;;;13.60;;
55732;SDS011;41637;52.364;9.910;2023-01-23T02:32:35;34.60;;;15.20;;
55732;SDS011;41637;52.364;9.910;2023-01-23T02:35:07;31.30;;;14.00;;
55732;SDS011;41637;52.364;9.910;2023-01-23T02:37:38;33.50;;;15.00;;
55732;SDS011;41637;52.364;9.910;2023-01-23T02:40:08;31.80;;;14.10;;
55732;SDS011;41637;52.364;9.910;2023-01-23T02:42:46;31.60;;;13.60;;
55732;SDS011;41637;52.364;9.910;2023-01-23T02:45:23;29.80;;;13.30;;
55732;SDS011;41637;52.364;9.910;2023-01-23T02:47:51;33.20;;;13.70;;
55732;SDS011;41637;52.364;9.910;2023-01-23T02:50:18;33.70;;;14.40;;
55732;SDS011;41637;52.364;9.910;2023-01-23T02:52:45;35.30;;;13.80;;
55732;SDS011;41637;52.364;9.910;2023-01-23T02:55:12;34.10;;;14.00;;
55732;SDS011;41637;52.364;9.910;2023-01-23T02:57:39;37.20;;;14.60;;
55732;SDS011;41637;52.364;9.910;2023-01-23T03:00:06;35.20;;;13.50;;
55732;SDS011;41637;52.364;9.910;2023-01-23T03:02:49;35.30;;;14.50;;
55732;SDS011;41637;52.364;9.910;2023-01-23T03:05:16;30.60;;;14.10;;
55732;SDS011;41637;52.364;9.910;2023-01-23T03:07:43;32.70;;;14.80;;
55732;SDS011;41637;52.364;9.910;2023-01-23T03:10:10;28.70;;;12.90;;
55732;SDS011;41637;52.364;9.910;2023-01-23T03:12:37;30.70;;;14.00;;
55732;SDS011;41637;52.364;9.910;2023-01-23T03:15:08;27.50;;;13.40;;
55732;SDS011;41637;52.364;9.910;2023-01-23T03:17:36;30.60;;;13.20;;
55732;SDS011;41637;52.364;9.910;2023-01-23T03:20:06;27.00;;;13.10;;
55732;SDS011;41637;52.364;9.910;2023-01-23T03:22:33;30.40;;;14.00;;
55732;SDS011;41637;52.364;9.910;2023-01-23T03:25:00;31.10;;;14.30;;
55732;SDS011;41637;52.364;9.910;2023-01-23T03:27:27;33.40;;;14.00;;
55732;SDS011;41637;52.364;9.910;2023-01-23T03:29:54;32.30;;;14.20;;
55732;SDS011;41637;52.364;9.910;2023-01-23T03:32:41;34.10;;;15.00;;
55732;SDS011;41637;52.364;9.910;2023-01-23T03:35:09;29.80;;;14.50;;
55732;SDS011;41637;52.364;9.910;2023-01-23T03:37:39;35.10;;;14.60;;
55732;SDS011;41637;52.364;9.910;2023-01-23T03:40:14;31.80;;;14.80;;
55732;SDS011;41637;52.364;9.910;2023-01-23T03:43:11;32.20;;;14.30;;
55732;SDS011;41637;52.364;9.910;2023-01-23T03:45:38;29.30;;;14.00;;
55732;SDS011;41637;52.364;9.910;2023-01-23T03:48:05;31.10;;;14.50;;
55732;SDS011;41637;52.364;9.910;2023-01-23T03:50:32;27.80;;;14.30;;
55732;SDS011;41637;52.364;9.910;2023-01-23T03:53:08;30.20;;;14.40;;
55732;SDS011;41637;52.364;9.910;2023-01-23T03:55:35;27.60;;;14.20;;
55732;SDS011;41637;52.364;9.910;2023-01-23T03:58:02;27.40;;;14.70;;
55732;SDS011;41637;52.364;9.910;2023-01-23T04:00:29;28.80;;;14.00;;
55732;SDS011;41637;52.364;9.910;2023-01-23T04:02:58;28.70;;;14.60;;
55732;SDS011;41637;52.364;9.910;2023-01-23T04:05:25;29.50;;;15.60;;
55732;SDS011;41637;52.364;9.910;2023-01-23T04:07:52;25.70;;;13.80;;
55732;SDS011;41637;52.364;9.910;2023-01-23T04:10:19;27.00;;;14.40;;
55732;SDS011;41637;52.364;9.910;2023-01-23T04:12:46;26.70;;;13.60;;
55732;SDS011;41637;52.364;9.910;2023-01-23T04:15:12;28.80;;;14.00;;
55732;SDS011;41637;52.364;9.910;2023-01-23T04:17:39;30.40;;;14.70;;
55732;SDS011;41637;52.364;9.910;2023-01-23T04:20:08;26.90;;;13.70;;
55732;SDS011;41637;52.364;9.910;2023-01-23T04:22:36;28.80;;;13.60;;
55732;SDS011;41637;52.364;9.910;2023-01-23T04:25:03;26.40;;;13.60;;
55732;SDS011;41637;52.364;9.910;2023-01-23T04:27:30;27.20;;;14.00;;
55732;SDS011;41637;52.364;9.910;2023-01-23T04:29:57;27.80;;;13.70;;
55732;SDS011;41637;52.364;9.910;2023-01-23T04:32:24;28.00;;;14.10;;
55732;SDS011;41637;52.364;9.910;2023-01-23T04:34:51;28.10;;;13.50;;
55732;SDS011;41637;52.364;9.910;2023-01-23T04:37:18;28.10;;;14.20;;
55732;SDS011;41637;52.364;9.910;2023-01-23T04:39:45;25.90;;;13.50;;
55732;SDS011;41637;52.364;9.910;2023-01-23T04:42:12;29.10;;;14.20;;
55732;SDS011;41637;52.364;9.910;2023-01-23T04:44:39;27.80;;;14.10;;
55732;SDS011;41637;52.364;9.910;2023-01-23T04:47:07;27.70;;;13.40;;
55732;SDS011;41637;52.364;9.910;2023-01-23T04:49:34;26.70;;;12.60;;
55732;SDS011;41637;52.364;9.910;2023-01-23T04:52:04;26.30;;;13.80;;
55732;SDS011;41637;52.364;9.910;2023-01-23T04:54:38;29.30;;;14.40;;
55732;SDS011;41637;52.364;9.910;2023-01-23T04:57:05;25.30;;;14.00;;
55732;SDS011;41637;52.364;9.910;2023-01-23T04:59:32;25.40;;;13.50;;
55732;SDS011;41637;52.364;9.910;2023-01-23T05:01:59;28.00;;;14.20;;
55732;SDS011;41637;52.364;9.910;2023-01-23T05:04:27;27.90;;;14.60;;
55732;SDS011;41637;52.364;9.910;2023-01-23T05:06:54;29.30;;;14.80;;
55732;SDS011;41637;52.364;9.910;2023-01-23T05:09:21;23.70;;;12.90;;
55732;SDS011;41637;52.364;9.910;2023-01-23T05:11:47;25.40;;;13.50;;
55732;SDS011;41637;52.364;9.910;2023-01-23T05:14:14;25.80;;;14.70;;
55732;SDS011;41637;52.364;9.910;2023-01-23T05:16:41;24.70;;;13.20;;
55732;SDS011;41637;52.364;9.910;2023-01-23T05:19:08;25.60;;;13.40;;
55732;SDS011;41637;52.364;9.910;2023-01-23T05:21:35;27.10;;;13.10;;
55732;SDS011;41637;52.364;9.910;2023-01-23T05:24:05;25.00;;;13.20;;
55732;SDS011;41637;52.364;9.910;2023-01-23T05:26:32;24.60;;;13.30;;
55732;SDS011;41637;52.364;9.910;2023-01-23T05:29:00;24.00;;;13.30;;
55732;SDS011;41637;52.364;9.910;2023-01-23T05:31:27;24.00;;;13.00;;
55732;SDS011;41637;52.364;9.910;2023-01-23T05:33:54;22.20;;;13.20;;
55732;SDS011;41637;52.364;9.910;2023-01-23T05:36:21;27.50;;;14.20;;
55732;SDS011;41637;52.364;9.910;2023-01-23T05:38:48;27.80;;;14.00;;
55732;SDS011;41637;52.364;9.910;2023-01-23T05:41:15;21.90;;;13.30;;
55732;SDS011;41637;52.364;9.910;2023-01-23T05:43:42;22.60;;;12.50;;
55732;SDS011;41637;52.364;9.910;2023-01-23T05:46:09;24.00;;;12.30;;
55732;SDS011;41637;52.364;9.910;2023-01-23T05:48:36;23.80;;;12.90;;
55732;SDS011;41637;52.364;9.910;2023-01-23T05:51:03;25.10;;;13.00;;
55732;SDS011;41637;52.364;9.910;2023-01-23T05:53:30;24.30;;;12.80;;
55732;SDS011;41637;52.364;9.910;2023-01-23T05:55:57;24.70;;;13.30;;
55732;SDS011;41637;52.364;9.910;2023-01-23T05:58:25;27.10;;;13.90;;
55732;SDS011;41637;52.364;9.910;2023-01-23T06:00:51;24.40;;;13.20;;
55732;SDS011;41637;52.364;9.910;2023-01-23T06:03:19;24.70;;;12.80;;
55732;SDS011;41637;52.364;9.910;2023-01-23T06:05:46;26.20;;;13.40;;
55732;SDS011;41637;52.364;9.910;2023-01-23T06:08:13;23.80;;;12.70;;
55732;SDS011;41637;52.364;9.910;2023-01-23T06:10:41;24.90;;;13.40;;
55732;SDS011;41637;52.364;9.910;2023-01-23T06:13:07;25.90;;;13.50;;
55732;SDS011;41637;52.364;9.910;2023-01-23T06:15:44;24.00;;;13.20;;
55732;SDS011;41637;52.364;9.910;2023-01-23T06:18:11;25.30;;;14.10;;
55732;SDS011;41637;52.364;9.910;2023-01-23T06:20:41;25.70;;;13.70;;
55732;SDS011;41637;52.364;9.910;2023-01-23T06:23:10;24.80;;;13.80;;
55732;SDS011;41637;52.364;9.910;2023-01-23T06:25:37;26.90;;;14.50;;
55732;SDS011;41637;52.364;9.910;2023-01-23T06:28:04;23.90;;;13.10;;
55732;SDS011;41637;52.364;9.910;2023-01-23T06:30:33;26.40;;;13.50;;
55732;SDS011;41637;52.364;9.910;2023-01-23T06:33:00;25.00;;;13.90;;
55732;SDS011;41637;52.364;9.910;2023-01-23T06:35:27;22.80;;;12.70;;
55732;SDS011;41637;52.364;9.910;2023-01-23T06:37:54;21.80;;;12.70;;
55732;SDS011;41637;52.364;9.910;2023-01-23T06:40:21;25.80;;;13.20;;
55732;SDS011;41637;52.364;9.910;2023-01-23T06:42:48;23.90;;;13.30;;
55732;SDS011;41637;52.364;9.910;2023-01-23T06:45:19;25.60;;;13.60;;
55732;SDS011;41637;52.364;9.910;2023-01-23T06:47:47;24.50;;;13.30;;
55732;SDS011;41637;52.364;9.910;2023-01-23T06:50:15;25.30;;;13.30;;
55732;SDS011;41637;52.364;9.910;2023-01-23T06:52:41;25.20;;;13.40;;
55732;SDS011;41637;52.364;9.910;2023-01-23T06:55:09;26.60;;;14.50;;
55732;SDS011;41637;52.364;9.910;2023-01-23T06:57:36;25.20;;;13.30;;
55732;SDS011;41637;52.364;9.910;2023-01-23T07:00:04;25.20;;;13.80;;
55732;SDS011;41637;52.364;9.910;2023-01-23T07:02:31;25.60;;;14.20;;
55732;SDS011;41637;52.364;9.910;2023-01-23T07:04:58;23.20;;;13.70;;
55732;SDS011;41637;52.364;9.910;2023-01-23T07:07:25;21.50;;;13.10;;
55732;SDS011;41637;52.364;9.910;2023-01-23T07:09:52;21.50;;;12.60;;
55732;SDS011;41637;52.364;9.910;2023-01-23T07:12:22;23.10;;;13.50;;
55732;SDS011;41637;52.364;9.910;2023-01-23T07:14:49;22.70;;;12.80;;
55732;SDS011;41637;52.364;9.910;2023-01-23T07:17:16;20.70;;;12.60;;
55732;SDS011;41637;52.364;9.910;2023-01-23T07:19:46;23.30;;;13.70;;
55732;SDS011;41637;52.364;9.910;2023-01-23T07:22:15;21.70;;;13.30;;
55732;SDS011;41637;52.364;9.910;2023-01-23T07:24:43;25.20;;;14.00;;
55732;SDS011;41637;52.364;9.910;2023-01-23T07:27:10;26.80;;;14.70;;
55732;SDS011;41637;52.364;9.910;2023-01-23T07:29:40;25.80;;;14.50;;
55732;SDS011;41637;52.364;9.910;2023-01-23T07:32:08;23.70;;;14.40;;
55732;SDS011;41637;52.364;9.910;2023-01-23T07:34:36;23.40;;;13.80;;
55732;SDS011;41637;52.364;9.910;2023-01-23T07:37:03;24.90;;;14.60;;
55732;SDS011;41637;52.364;9.910;2023-01-23T07:39:30;22.80;;;14.10;;
55732;SDS011;41637;52.364;9.910;2023-01-23T07:41:57;24.10;;;14.20;;
55732;SDS011;41637;52.364;9.910;2023-01-23T07:44:24;24.00;;;13.70;;
55732;SDS011;41637;52.364;9.910;2023-01-23T07:46:51;23.40;;;13.90;;
55732;SDS011;41637;52.364;9.910;2023-01-23T07:49:18;25.60;;;14.10;;
55732;SDS011;41637;52.364;9.910;2023-01-23T07:51:45;25.70;;;13.70;;
55732;SDS011;41637;52.364;9.910;2023-01-23T07:54:12;24.70;;;14.10;;
55732;SDS011;41637;52.364;9.910;2023-01-23T07:56:39;23.40;;;13.70;;
55732;SDS011;41637;52.364;9.910;2023-01-23T07:59:06;27.80;;;14.80;;
55732;SDS011;41637;52.364;9.910;2023-01-23T08:01:33;26.10;;;14.50;;
55732;SDS011;41637;52.364;9.910;2023-01-23T08:04:00;26.40;;;14.70;;
55732;SDS011;41637;52.364;9.910;2023-01-23T08:06:27;27.10;;;15.10;;
55732;SDS011;41637;52.364;9.910;2023-01-23T08:08:54;27.90;;;15.80;;
55732;SDS011;41637;52.364;9.910;2023-01-23T08:11:22;28.50;;;15.00;;
55732;SDS011;41637;52.364;9.910;2023-01-23T08:13:51;27.00;;;14.50;;
55732;SDS011;41637;52.364;9.910;2023-01-23T08:16:18;28.00;;;15.60;;
55732;SDS011;41637;52.364;9.910;2023-01-23T08:18:50;30.10;;;16.00;;
55732;SDS011;41637;52.364;9.910;2023-01-23T08:21:17;30.70;;;15.80;;
55732;SDS011;41637;52.364;9.910;2023-01-23T08:23:44;30.60;;;16.00;;
55732;SDS011;41637;52.364;9.910;2023-01-23T08:26:12;29.80;;;15.70;;
55732;SDS011;41637;52.364;9.910;2023-01-23T08:28:44;30.20;;;15.60;;
55732;SDS011;41637;52.364;9.910;2023-01-23T08:31:18;27.40;;;15.40;;
55732;SDS011;41637;52.364;9.910;2023-01-23T08:33:45;31.40;;;16.30;;
55732;SDS011;41637;52.364;9.910;2023-01-23T08:36:12;33.60;;;15.90;;
55732;SDS011;41637;52.364;9.910;2023-01-23T08:38:39;32.30;;;16.50;;
55732;SDS011;41637;52.364;9.910;2023-01-23T08:41:06;32.10;;;16.30;;
55732;SDS011;41637;52.364;9.910;2023-01-23T08:43:35;35.10;;;17.00;;
55732;SDS011;41637;52.364;9.910;2023-01-23T08:46:02;30.50;;;15.80;;
55732;SDS011;41637;52.364;9.910;2023-01-23T08:48:29;34.70;;;16.10;;
55732;SDS011;41637;52.364;9.910;2023-01-23T08:50:58;31.70;;;16.90;;
55732;SDS011;41637;52.364;9.910;2023-01-23T08:53:27;36.20;;;18.40;;
55732;SDS011;41637;52.364;9.910;2023-01-23T08:56:28;35.10;;;17.30;;
55732;SDS011;41637;52.364;9.910;2023-01-23T08:58:48;31.10;;;15.90;;
55732;SDS011;41637;52.364;9.910;2023-01-23T09:01:20;27.30;;;14.70;;
55732;SDS011;41637;52.364;9.910;2023-01-23T09:03:51;26.50;;;14.60;;
55732;SDS011;41637;52.364;9.910;2023-01-23T09:06:21;25.10;;;14.50;;
55732;SDS011;41637;52.364;9.910;2023-01-23T09:08:50;24.70;;;13.30;;
55732;SDS011;41637;52.364;9.910;2023-01-23T09:11:17;22.90;;;13.50;;
55732;SDS011;41637;52.364;9.910;2023-01-23T09:13:44;26.30;;;15.50;;
55732;SDS011;41637;52.364;9.910;2023-01-23T09:16:15;21.00;;;13.00;;
55732;SDS011;41637;52.364;9.910;2023-01-23T09:18:44;24.10;;;13.60;;
55732;SDS011;41637;52.364;9.910;2023-01-23T09:21:12;22.20;;;13.80;;
55732;SDS011;41637;52.364;9.910;2023-01-23T09:23:41;24.20;;;13.80;;
55732;SDS011;41637;52.364;9.910;2023-01-23T09:26:09;21.80;;;13.10;;
55732;SDS011;41637;52.364;9.910;2023-01-23T09:28:37;23.50;;;13.60;;
55732;SDS011;41637;52.364;9.910;2023-01-23T09:31:08;23.40;;;13.10;;
55732;SDS011;41637;52.364;9.910;2023-01-23T09:33:37;20.40;;;12.40;;
55732;SDS011;41637;52.364;9.910;2023-01-23T09:36:04;23.50;;;13.90;;
55732;SDS011;41637;52.364;9.910;2023-01-23T09:38:31;23.30;;;13.60;;
55732;SDS011;41637;52.364;9.910;2023-01-23T09:41:00;23.70;;;13.80;;
55732;SDS011;41637;52.364;9.910;2023-01-23T09:43:44;23.50;;;13.60;;
55732;SDS011;41637;52.364;9.910;2023-01-23T09:46:25;21.90;;;13.40;;
55732;SDS011;41637;52.364;9.910;2023-01-23T09:49:01;22.60;;;13.60;;
55732;SDS011;41637;52.364;9.910;2023-01-23T09:54:17;25.00;;;13.60;;
55732;SDS011;41637;52.364;9.910;2023-01-23T09:57:05;22.00;;;13.40;;
55732;SDS011;41637;52.364;9.910;2023-01-23T09:59:43;24.60;;;13.90;;
55732;SDS011;41637;52.364;9.910;2023-01-23T10:02:26;23.20;;;13.40;;
55732;SDS011;41637;52.364;9.910;2023-01-23T10:04:53;24.40;;;13.80;;
55732;SDS011;41637;52.364;9.910;2023-01-23T10:18:32;24.40;;;13.90;;
55732;SDS011;41637;52.364;9.910;2023-01-23T10:21:16;25.30;;;14.90;;
55732;SDS011;41637;52.364;9.910;2023-01-23T10:26:29;24.90;;;14.10;;
55732;SDS011;41637;52.364;9.910;2023-01-23T10:31:54;24.70;;;13.90;;
55732;SDS011;41637;52.364;9.910;2023-01-23T10:34:24;26.30;;;13.60;;
55732;SDS011;41637;52.364;9.910;2023-01-23T10:37:09;24.20;;;14.70;;
55732;SDS011;41637;52.364;9.910;2023-01-23T10:39:42;24.20;;;13.30;;
55732;SDS011;41637;52.364;9.910;2023-01-23T10:42:17;25.90;;;14.00;;
55732;SDS011;41637;52.364;9.910;2023-01-23T10:44:49;24.80;;;14.30;;
55732;SDS011;41637;52.364;9.910;2023-01-23T10:47:18;24.10;;;14.10;;
55732;SDS011;41637;52.364;9.910;2023-01-23T10:50:05;25.40;;;14.30;;
55732;SDS011;41637;52.364;9.910;2023-01-23T10:52:41;23.90;;;14.00;;
55732;SDS011;41637;52.364;9.910;2023-01-23T10:57:53;25.90;;;14.60;;
55732;SDS011;41637;52.364;9.910;2023-01-23T11:00:26;25.70;;;14.20;;
55732;SDS011;41637;52.364;9.910;2023-01-23T11:03:43;23.20;;;13.00;;
55732;SDS011;41637;52.364;9.910;2023-01-23T11:08:30;22.10;;;13.40;;
55732;SDS011;41637;52.364;9.910;2023-01-23T11:11:20;23.30;;;13.30;;
55732;SDS011;41637;52.364;9.910;2023-01-23T11:14:01;23.60;;;13.70;;
55732;SDS011;41637;52.364;9.910;2023-01-23T11:16:29;21.70;;;13.60;;
55732;SDS011;41637;52.364;9.910;2023-01-23T11:21:49;22.30;;;13.40;;
55732;SDS011;41637;52.364;9.910;2023-01-23T11:24:18;22.40;;;13.30;;
55732;SDS011;41637;52.364;9.910;2023-01-23T11:29:52;22.60;;;13.10;;
55732;SDS011;41637;52.364;9.910;2023-01-23T11:32:23;22.30;;;13.50;;
55732;SDS011;41637;52.364;9.910;2023-01-23T11:34:51;22.20;;;13.10;;
55732;SDS011;41637;52.364;9.910;2023-01-23T11:37:29;24.20;;;13.60;;
55732;SDS011;41637;52.364;9.910;2023-01-23T11:40:09;21.60;;;12.90;;
55732;SDS011;41637;52.364;9.910;2023-01-23T11:42:41;21.90;;;13.00;;
55732;SDS011;41637;52.364;9.910;2023-01-23T11:50:48;20.20;;;12.50;;
55732;SDS011;41637;52.364;9.910;2023-01-23T11:53:23;20.60;;;12.10;;
55732;SDS011;41637;52.364;9.910;2023-01-23T12:02:25;19.00;;;11.20;;
55732;SDS011;41637;52.364;9.910;2023-01-23T12:05:17;18.80;;;11.50;;
55732;SDS011;41637;52.364;9.910;2023-01-23T12:11:07;18.20;;;11.20;;
55732;SDS011;41637;52.364;9.910;2023-01-23T12:16:58;17.20;;;11.00;;
55732;SDS011;41637;52.364;9.910;2023-01-23T12:33:18;19.40;;;12.30;;
55732;SDS011;41637;52.364;9.910;2023-01-23T12:42:00;18.50;;;11.80;;
55732;SDS011;41637;52.364;9.910;2023-01-23T12:47:31;19.30;;;12.30;;
55732;SDS011;41637;52.364;9.910;2023-01-23T12:50:10;18.30;;;11.10;;
55732;SDS011;41637;52.364;9.910;2023-01-23T12:52:38;17.00;;;11.80;;
55732;SDS011;41637;52.364;9.910;2023-01-23T12:55:27;17.60;;;11.40;;
55732;SDS011;41637;52.364;9.910;2023-01-23T12:58:01;17.60;;;11.80;;
55732;SDS011;41637;52.364;9.910;2023-01-23T13:03:32;19.50;;;11.50;;
55732;SDS011;41637;52.364;9.910;2023-01-23T13:17:28;18.90;;;12.30;;
55732;SDS011;41637;52.364;9.910;2023-01-23T13:25:49;17.70;;;11.60;;
55732;SDS011;41637;52.364;9.910;2023-01-23T13:28:39;17.20;;;11.00;;
55732;SDS011;41637;52.364;9.910;2023-01-23T13:34:00;15.80;;;10.20;;
55732;SDS011;41637;52.364;9.910;2023-01-23T13:36:44;18.20;;;11.40;;
55732;SDS011;41637;52.364;9.910;2023-01-23T13:41:42;16.80;;;11.10;;
55732;SDS011;41637;52.364;9.910;2023-01-23T13:47:19;18.20;;;11.30;;
55732;SDS011;41637;52.364;9.910;2023-01-23T13:50:33;17.50;;;11.40;;
55732;SDS011;41637;52.364;9.910;2023-01-23T13:53:19;18.60;;;11.80;;
55732;SDS011;41637;52.364;9.910;2023-01-23T13:56:21;16.70;;;11.00;;
55732;SDS011;41637;52.364;9.910;2023-01-23T13:59:22;19.60;;;12.30;;
55732;SDS011;41637;52.364;9.910;2023-01-23T14:05:19;20.90;;;13.70;;
55732;SDS011;41637;52.364;9.910;2023-01-23T14:08:18;18.70;;;12.00;;
55732;SDS011;41637;52.364;9.910;2023-01-23T14:11:00;19.50;;;12.70;;
55732;SDS011;41637;52.364;9.910;2023-01-23T14:13:45;21.30;;;13.20;;
55732;SDS011;41637;52.364;9.910;2023-01-23T14:16:15;21.20;;;13.10;;
55732;SDS011;41637;52.364;9.910;2023-01-23T14:19:03;21.10;;;13.60;;
55732;SDS011;41637;52.364;9.910;2023-01-23T14:21:31;21.20;;;13.00;;
55732;SDS011;41637;52.364;9.910;2023-01-23T14:24:22;20.00;;;13.10;;
55732;SDS011;41637;52.364;9.910;2023-01-23T14:26:53;21.10;;;13.20;;
55732;SDS011;41637;52.364;9.910;2023-01-23T14:29:33;21.80;;;13.60;;
55732;SDS011;41637;52.364;9.910;2023-01-23T14:32:00;23.40;;;13.90;;
55732;SDS011;41637;52.364;9.910;2023-01-23T14:34:27;22.30;;;14.80;;
55732;SDS011;41637;52.364;9.910;2023-01-23T14:39:32;22.40;;;14.30;;
55732;SDS011;41637;52.364;9.910;2023-01-23T14:42:02;20.20;;;13.50;;
55732;SDS011;41637;52.364;9.910;2023-01-23T14:44:37;23.80;;;14.80;;
55732;SDS011;41637;52.364;9.910;2023-01-23T14:47:11;21.50;;;13.70;;
55732;SDS011;41637;52.364;9.910;2023-01-23T14:49:42;22.70;;;13.90;;
55732;SDS011;41637;52.364;9.910;2023-01-23T14:52:28;23.40;;;14.60;;
55732;SDS011;41637;52.364;9.910;2023-01-23T14:54:56;22.80;;;13.90;;
55732;SDS011;41637;52.364;9.910;2023-01-23T14:57:32;25.30;;;14.60;;
55732;SDS011;41637;52.364;9.910;2023-01-23T15:00:00;23.20;;;13.90;;
55732;SDS011;41637;52.364;9.910;2023-01-23T15:05:08;25.60;;;14.20;;
55732;SDS011;41637;52.364;9.910;2023-01-23T15:10:33;24.70;;;14.10;;
55732;SDS011;41637;52.364;9.910;2023-01-23T15:13:18;25.80;;;15.20;;
55732;SDS011;41637;52.364;9.910;2023-01-23T15:15:52;25.60;;;15.50;;
55732;SDS011;41637;52.364;9.910;2023-01-23T15:18:23;26.40;;;15.40;;
55732;SDS011;41637;52.364;9.910;2023-01-23T15:20:57;24.30;;;14.60;;
55732;SDS011;41637;52.364;9.910;2023-01-23T15:23:25;26.40;;;15.40;;
55732;SDS011;41637;52.364;9.910;2023-01-23T15:26:09;27.60;;;15.90;;
55732;SDS011;41637;52.364;9.910;2023-01-23T15:28:39;27.90;;;15.90;;
55732;SDS011;41637;52.364;9.910;2023-01-23T15:34:09;24.30;;;14.40;;
55732;SDS011;41637;52.364;9.910;2023-01-23T15:36:45;27.80;;;15.90;;
55732;SDS011;41637;52.364;9.910;2023-01-23T15:42:41;26.60;;;15.40;;
55732;SDS011;41637;52.364;9.910;2023-01-23T15:44:58;29.70;;;16.50;;
55732;SDS011;41637;52.364;9.910;2023-01-23T15:47:29;28.40;;;16.30;;
55732;SDS011;41637;52.364;9.910;2023-01-23T15:50:01;28.60;;;15.40;;
55732;SDS011;41637;52.364;9.910;2023-01-23T15:52:30;28.40;;;15.90;;
55732;SDS011;41637;52.364;9.910;2023-01-23T15:55:11;29.70;;;17.10;;
55732;SDS011;41637;52.364;9.910;2023-01-23T15:57:39;28.10;;;15.90;;
55732;SDS011;41637;52.364;9.910;2023-01-23T16:00:18;29.00;;;16.10;;
55732;SDS011;41637;52.364;9.910;2023-01-23T16:02:46;28.20;;;15.60;;
55732;SDS011;41637;52.364;9.910;2023-01-23T16:05:22;29.40;;;17.80;;
55732;SDS011;41637;52.364;9.910;2023-01-23T16:07:53;28.50;;;16.00;;
55732;SDS011;41637;52.364;9.910;2023-01-23T16:10:23;26.10;;;14.90;;
55732;SDS011;41637;52.364;9.910;2023-01-23T16:12:55;27.30;;;15.90;;
55732;SDS011;41637;52.364;9.910;2023-01-23T16:15:24;27.00;;;15.20;;
55732;SDS011;41637;52.364;9.910;2023-01-23T16:17:52;28.60;;;16.00;;
55732;SDS011;41637;52.364;9.910;2023-01-23T16:21:02;28.00;;;16.10;;
55732;SDS011;41637;52.364;9.910;2023-01-23T16:23:31;28.90;;;16.40;;
55732;SDS011;41637;52.364;9.910;2023-01-23T16:26:17;26.70;;;15.20;;
55732;SDS011;41637;52.364;9.910;2023-01-23T16:28:45;24.90;;;15.10;;
55732;SDS011;41637;52.364;9.910;2023-01-23T16:31:13;28.20;;;14.80;;
55732;SDS011;41637;52.364;9.910;2023-01-23T16:33:42;28.50;;;15.10;;
55732;SDS011;41637;52.364;9.910;2023-01-23T16:36:13;26.10;;;14.80;;
55732;SDS011;41637;52.364;9.910;2023-01-23T16:38:47;29.90;;;16.50;;
55732;SDS011;41637;52.364;9.910;2023-01-23T16:41:17;27.80;;;15.10;;
55732;SDS011;41637;52.364;9.910;2023-01-23T16:43:44;28.90;;;16.80;;
55732;SDS011;41637;52.364;9.910;2023-01-23T16:46:11;28.50;;;17.10;;
55732;SDS011;41637;52.364;9.910;2023-01-23T16:48:38;26.90;;;15.90;;
55732;SDS011;41637;52.364;9.910;2023-01-23T16:51:17;28.60;;;16.00;;